sensor_id;sensor_type;location;lat;lon;timestamp;P1;durP1;ratioP1;P2;durP2;ratioP2
15818;SDS011;8010;53.986;12.106;2022-11-22T00:00:33;12.70;;;6.57;;
15818;SDS011;8010;53.986;12.106;2022-11-22T00:02:59;13.13;;;6.77;;
15818;SDS011;8010;53.986;12.106;2022-11-22T00:05:25;12.43;;;6.73;;
15818;SDS011;8010;53.986;12.106;2022-11-22T00:07:50;10.80;;;6.83;;
15818;SDS011;8010;53.986;12.106;2022-11-22T00:10:16;12.77;;;7.40;;
15818;SDS011;8010;53.986;12.106;2022-11-22T00:12:42;12.63;;;7.03;;
15818;SDS011;8010;53.986;12.106;2022-11-22T00:15:08;11.10;;;6.83;;
15818;SDS011;8010;53.986;12.106;2022-11-22T00:17:34;15.80;;;7.60;;
15818;SDS011;8010;53.986;12.106;2022-11-22T00:20:00;13.97;;;6.97;;
15818;SDS011;8010;53.986;12.106;2022-11-22T00:22:26;14.73;;;7.33;;
15818;SDS011;8010;53.986;12.106;2022-11-22T00:24:51;10.70;;;6.43;;
15818;SDS011;8010;53.986;12.106;2022-11-22T00:27:18;15.23;;;8.03;;
15818;SDS011;8010;53.986;12.106;2022-11-22T00:29:44;15.57;;;7.50;;
15818;SDS011;8010;53.986;12.106;2022-11-22T00:32:09;12.50;;;7.03;;
15818;SDS011;8010;53.986;12.106;2022-11-22T00:34:35;13.67;;;7.53;;
15818;SDS011;8010;53.986;12.106;2022-11-22T00:37:00;14.20;;;7.47;;
15818;SDS011;8010;53.986;12.106;2022-11-22T00:39:26;12.90;;;7.27;;
15818;SDS011;8010;53.986;12.106;2022-11-22T00:41:52;11.77;;;6.60;;
15818;SDS011;8010;53.986;12.106;2022-11-22T00:44:17;14.47;;;8.30;;
15818;SDS011;8010;53.986;12.106;2022-11-22T00:46:43;13.60;;;7.57;;
15818;SDS011;8010;53.986;12.106;2022-11-22T00:49:08;10.73;;;6.50;;
15818;SDS011;8010;53.986;12.106;2022-11-22T00:51:34;10.27;;;6.20;;
15818;SDS011;8010;53.986;12.106;2022-11-22T00:54:00;12.57;;;7.57;;
15818;SDS011;8010;53.986;12.106;2022-11-22T00:56:25;16.00;;;7.37;;
15818;SDS011;8010;53.986;12.106;2022-11-22T00:58:51;12.33;;;6.60;;
15818;SDS011;8010;53.986;12.106;2022-11-22T01:01:16;12.80;;;6.93;;
15818;SDS011;8010;53.986;12.106;2022-11-22T01:03:42;13.63;;;7.13;;
15818;SDS011;8010;53.986;12.106;2022-11-22T01:06:07;14.50;;;7.50;;
15818;SDS011;8010;53.986;12.106;2022-11-22T01:08:33;10.77;;;6.23;;
15818;SDS011;8010;53.986;12.106;2022-11-22T01:10:59;13.60;;;7.17;;
15818;SDS011;8010;53.986;12.106;2022-11-22T01:13:25;11.27;;;7.50;;
15818;SDS011;8010;53.986;12.106;2022-11-22T01:15:53;10.53;;;6.07;;
15818;SDS011;8010;53.986;12.106;2022-11-22T01:18:26;14.93;;;7.57;;
15818;SDS011;8010;53.986;12.106;2022-11-22T01:20:52;12.70;;;7.40;;
15818;SDS011;8010;53.986;12.106;2022-11-22T01:23:18;11.97;;;6.83;;
15818;SDS011;8010;53.986;12.106;2022-11-22T01:25:43;13.60;;;7.13;;
15818;SDS011;8010;53.986;12.106;2022-11-22T01:28:09;11.17;;;6.43;;
15818;SDS011;8010;53.986;12.106;2022-11-22T01:30:35;10.40;;;5.97;;
15818;SDS011;8010;53.986;12.106;2022-11-22T01:33:00;11.10;;;5.87;;
15818;SDS011;8010;53.986;12.106;2022-11-22T01:35:26;10.87;;;6.73;;
15818;SDS011;8010;53.986;12.106;2022-11-22T01:37:52;10.47;;;6.00;;
15818;SDS011;8010;53.986;12.106;2022-11-22T01:40:17;9.60;;;6.03;;
15818;SDS011;8010;53.986;12.106;2022-11-22T01:42:50;9.33;;;5.40;;
15818;SDS011;8010;53.986;12.106;2022-11-22T01:47:59;11.87;;;5.63;;
15818;SDS011;8010;53.986;12.106;2022-11-22T01:50:30;8.93;;;5.17;;
15818;SDS011;8010;53.986;12.106;2022-11-22T01:52:59;11.43;;;5.47;;
15818;SDS011;8010;53.986;12.106;2022-11-22T01:55:30;11.10;;;5.93;;
15818;SDS011;8010;53.986;12.106;2022-11-22T01:57:58;11.33;;;6.33;;
15818;SDS011;8010;53.986;12.106;2022-11-22T02:00:24;10.63;;;6.03;;
15818;SDS011;8010;53.986;12.106;2022-11-22T02:02:51;10.33;;;6.27;;
15818;SDS011;8010;53.986;12.106;2022-11-22T02:05:20;12.33;;;6.77;;
15818;SDS011;8010;53.986;12.106;2022-11-22T02:10:19;8.47;;;5.30;;
15818;SDS011;8010;53.986;12.106;2022-11-22T02:12:49;10.33;;;5.70;;
15818;SDS011;8010;53.986;12.106;2022-11-22T02:15:17;9.17;;;5.80;;
15818;SDS011;8010;53.986;12.106;2022-11-22T02:17:42;10.80;;;6.10;;
15818;SDS011;8010;53.986;12.106;2022-11-22T02:20:08;12.83;;;6.53;;
15818;SDS011;8010;53.986;12.106;2022-11-22T02:28:12;10.80;;;6.17;;
15818;SDS011;8010;53.986;12.106;2022-11-22T02:30:38;10.83;;;5.80;;
15818;SDS011;8010;53.986;12.106;2022-11-22T02:33:05;11.73;;;6.80;;
15818;SDS011;8010;53.986;12.106;2022-11-22T02:35:31;9.67;;;5.53;;
15818;SDS011;8010;53.986;12.106;2022-11-22T02:37:58;12.40;;;6.20;;
15818;SDS011;8010;53.986;12.106;2022-11-22T02:40:27;9.93;;;5.63;;
15818;SDS011;8010;53.986;12.106;2022-11-22T02:43:10;10.70;;;5.73;;
15818;SDS011;8010;53.986;12.106;2022-11-22T02:45:39;12.50;;;6.27;;
15818;SDS011;8010;53.986;12.106;2022-11-22T02:48:09;11.23;;;5.70;;
15818;SDS011;8010;53.986;12.106;2022-11-22T02:50:36;16.90;;;6.37;;
15818;SDS011;8010;53.986;12.106;2022-11-22T02:53:02;14.80;;;5.93;;
15818;SDS011;8010;53.986;12.106;2022-11-22T02:55:29;13.13;;;6.70;;
15818;SDS011;8010;53.986;12.106;2022-11-22T02:57:54;13.50;;;7.30;;
15818;SDS011;8010;53.986;12.106;2022-11-22T03:00:20;12.30;;;6.30;;
15818;SDS011;8010;53.986;12.106;2022-11-22T03:02:46;11.67;;;6.97;;
15818;SDS011;8010;53.986;12.106;2022-11-22T03:05:11;12.40;;;6.90;;
15818;SDS011;8010;53.986;12.106;2022-11-22T03:07:37;11.23;;;7.10;;
15818;SDS011;8010;53.986;12.106;2022-11-22T03:10:02;14.83;;;7.73;;
15818;SDS011;8010;53.986;12.106;2022-11-22T03:12:28;11.80;;;6.70;;
15818;SDS011;8010;53.986;12.106;2022-11-22T03:14:54;13.03;;;7.17;;
15818;SDS011;8010;53.986;12.106;2022-11-22T03:17:19;11.33;;;6.60;;
15818;SDS011;8010;53.986;12.106;2022-11-22T03:19:45;13.00;;;7.07;;
15818;SDS011;8010;53.986;12.106;2022-11-22T03:22:10;16.03;;;7.40;;
15818;SDS011;8010;53.986;12.106;2022-11-22T03:24:36;18.73;;;7.70;;
15818;SDS011;8010;53.986;12.106;2022-11-22T03:27:01;14.37;;;7.40;;
15818;SDS011;8010;53.986;12.106;2022-11-22T03:29:27;16.23;;;8.00;;
15818;SDS011;8010;53.986;12.106;2022-11-22T03:31:52;12.87;;;7.57;;
15818;SDS011;8010;53.986;12.106;2022-11-22T03:34:18;12.33;;;6.67;;
15818;SDS011;8010;53.986;12.106;2022-11-22T03:36:43;14.97;;;8.00;;
15818;SDS011;8010;53.986;12.106;2022-11-22T03:39:09;12.87;;;7.00;;
15818;SDS011;8010;53.986;12.106;2022-11-22T03:41:34;10.47;;;6.97;;
15818;SDS011;8010;53.986;12.106;2022-11-22T03:44:00;14.10;;;7.00;;
15818;SDS011;8010;53.986;12.106;2022-11-22T03:46:25;14.90;;;8.40;;
15818;SDS011;8010;53.986;12.106;2022-11-22T03:48:51;16.50;;;8.90;;
15818;SDS011;8010;53.986;12.106;2022-11-22T03:51:16;15.33;;;8.20;;
15818;SDS011;8010;53.986;12.106;2022-11-22T03:53:42;15.93;;;8.90;;
15818;SDS011;8010;53.986;12.106;2022-11-22T03:56:07;16.43;;;8.83;;
15818;SDS011;8010;53.986;12.106;2022-11-22T03:58:33;18.43;;;9.40;;
15818;SDS011;8010;53.986;12.106;2022-11-22T04:00:59;19.57;;;10.13;;
15818;SDS011;8010;53.986;12.106;2022-11-22T04:03:25;20.77;;;9.23;;
15818;SDS011;8010;53.986;12.106;2022-11-22T04:05:50;19.80;;;10.37;;
15818;SDS011;8010;53.986;12.106;2022-11-22T04:08:16;21.73;;;10.10;;
15818;SDS011;8010;53.986;12.106;2022-11-22T04:10:42;15.43;;;9.43;;
15818;SDS011;8010;53.986;12.106;2022-11-22T04:13:07;18.07;;;9.53;;
15818;SDS011;8010;53.986;12.106;2022-11-22T04:15:33;15.23;;;8.83;;
15818;SDS011;8010;53.986;12.106;2022-11-22T04:17:58;24.07;;;9.33;;
15818;SDS011;8010;53.986;12.106;2022-11-22T04:20:25;19.20;;;9.90;;
15818;SDS011;8010;53.986;12.106;2022-11-22T04:25:42;18.30;;;9.53;;
15818;SDS011;8010;53.986;12.106;2022-11-22T04:28:10;17.07;;;9.93;;
15818;SDS011;8010;53.986;12.106;2022-11-22T04:30:36;19.27;;;9.93;;
15818;SDS011;8010;53.986;12.106;2022-11-22T04:33:20;16.27;;;8.67;;
15818;SDS011;8010;53.986;12.106;2022-11-22T04:35:46;19.30;;;10.27;;
15818;SDS011;8010;53.986;12.106;2022-11-22T04:38:12;18.67;;;9.83;;
15818;SDS011;8010;53.986;12.106;2022-11-22T04:40:38;20.10;;;10.03;;
15818;SDS011;8010;53.986;12.106;2022-11-22T04:43:04;19.33;;;10.50;;
15818;SDS011;8010;53.986;12.106;2022-11-22T04:45:49;23.80;;;8.97;;
15818;SDS011;8010;53.986;12.106;2022-11-22T04:48:15;16.07;;;8.57;;
15818;SDS011;8010;53.986;12.106;2022-11-22T04:50:41;20.10;;;10.53;;
15818;SDS011;8010;53.986;12.106;2022-11-22T04:53:26;16.30;;;8.80;;
15818;SDS011;8010;53.986;12.106;2022-11-22T04:55:53;20.00;;;9.87;;
15818;SDS011;8010;53.986;12.106;2022-11-22T04:58:18;18.73;;;10.40;;
15818;SDS011;8010;53.986;12.106;2022-11-22T05:00:44;14.50;;;8.83;;
15818;SDS011;8010;53.986;12.106;2022-11-22T05:03:10;17.87;;;9.90;;
15818;SDS011;8010;53.986;12.106;2022-11-22T05:05:36;17.23;;;9.60;;
15818;SDS011;8010;53.986;12.106;2022-11-22T05:08:03;18.57;;;9.50;;
15818;SDS011;8010;53.986;12.106;2022-11-22T05:10:29;18.80;;;9.27;;
15818;SDS011;8010;53.986;12.106;2022-11-22T05:13:14;17.97;;;7.67;;
15818;SDS011;8010;53.986;12.106;2022-11-22T05:15:40;13.57;;;7.70;;
15818;SDS011;8010;53.986;12.106;2022-11-22T05:18:06;14.83;;;7.33;;
15818;SDS011;8010;53.986;12.106;2022-11-22T05:20:31;18.17;;;9.03;;
15818;SDS011;8010;53.986;12.106;2022-11-22T05:22:57;13.87;;;8.00;;
15818;SDS011;8010;53.986;12.106;2022-11-22T05:25:41;14.00;;;8.13;;
15818;SDS011;8010;53.986;12.106;2022-11-22T05:28:06;17.43;;;8.97;;
15818;SDS011;8010;53.986;12.106;2022-11-22T05:30:32;16.33;;;8.93;;
15818;SDS011;8010;53.986;12.106;2022-11-22T05:32:57;14.90;;;9.27;;
15818;SDS011;8010;53.986;12.106;2022-11-22T05:35:23;15.20;;;9.40;;
15818;SDS011;8010;53.986;12.106;2022-11-22T05:37:48;19.07;;;9.60;;
15818;SDS011;8010;53.986;12.106;2022-11-22T05:40:14;18.20;;;9.43;;
15818;SDS011;8010;53.986;12.106;2022-11-22T05:42:39;17.50;;;9.23;;
15818;SDS011;8010;53.986;12.106;2022-11-22T05:45:05;18.53;;;10.00;;
15818;SDS011;8010;53.986;12.106;2022-11-22T05:47:34;17.07;;;9.07;;
15818;SDS011;8010;53.986;12.106;2022-11-22T05:50:00;18.93;;;11.00;;
15818;SDS011;8010;53.986;12.106;2022-11-22T05:52:26;17.23;;;9.23;;
15818;SDS011;8010;53.986;12.106;2022-11-22T05:54:52;18.97;;;10.30;;
15818;SDS011;8010;53.986;12.106;2022-11-22T05:57:17;16.37;;;9.87;;
15818;SDS011;8010;53.986;12.106;2022-11-22T05:59:43;18.77;;;9.63;;
15818;SDS011;8010;53.986;12.106;2022-11-22T06:02:08;15.00;;;8.43;;
15818;SDS011;8010;53.986;12.106;2022-11-22T06:04:34;18.50;;;10.07;;
15818;SDS011;8010;53.986;12.106;2022-11-22T06:06:59;17.80;;;9.83;;
15818;SDS011;8010;53.986;12.106;2022-11-22T06:09:25;19.30;;;10.37;;
15818;SDS011;8010;53.986;12.106;2022-11-22T06:11:50;17.10;;;8.93;;
15818;SDS011;8010;53.986;12.106;2022-11-22T06:14:16;18.07;;;9.53;;
15818;SDS011;8010;53.986;12.106;2022-11-22T06:16:41;22.27;;;10.57;;
15818;SDS011;8010;53.986;12.106;2022-11-22T06:19:07;20.73;;;10.10;;
15818;SDS011;8010;53.986;12.106;2022-11-22T06:21:32;18.57;;;10.20;;
15818;SDS011;8010;53.986;12.106;2022-11-22T06:23:58;17.67;;;9.20;;
15818;SDS011;8010;53.986;12.106;2022-11-22T06:26:24;20.00;;;9.70;;
15818;SDS011;8010;53.986;12.106;2022-11-22T06:28:50;17.73;;;9.57;;
15818;SDS011;8010;53.986;12.106;2022-11-22T06:31:17;17.47;;;9.43;;
15818;SDS011;8010;53.986;12.106;2022-11-22T06:33:47;18.53;;;9.40;;
15818;SDS011;8010;53.986;12.106;2022-11-22T06:36:14;17.30;;;9.20;;
15818;SDS011;8010;53.986;12.106;2022-11-22T06:38:45;22.30;;;10.87;;
15818;SDS011;8010;53.986;12.106;2022-11-22T06:41:12;19.73;;;10.13;;
15818;SDS011;8010;53.986;12.106;2022-11-22T06:43:43;19.30;;;9.53;;
15818;SDS011;8010;53.986;12.106;2022-11-22T06:46:10;20.10;;;10.40;;
15818;SDS011;8010;53.986;12.106;2022-11-22T06:48:37;21.73;;;9.63;;
15818;SDS011;8010;53.986;12.106;2022-11-22T06:51:04;18.73;;;9.97;;
15818;SDS011;8010;53.986;12.106;2022-11-22T06:53:33;16.67;;;8.20;;
15818;SDS011;8010;53.986;12.106;2022-11-22T06:56:04;21.80;;;10.63;;
15818;SDS011;8010;53.986;12.106;2022-11-22T06:58:30;20.07;;;9.47;;
15818;SDS011;8010;53.986;12.106;2022-11-22T07:00:59;17.97;;;9.23;;
15818;SDS011;8010;53.986;12.106;2022-11-22T07:03:27;18.93;;;9.97;;
15818;SDS011;8010;53.986;12.106;2022-11-22T07:05:53;20.43;;;10.17;;
15818;SDS011;8010;53.986;12.106;2022-11-22T07:08:19;20.77;;;10.33;;
15818;SDS011;8010;53.986;12.106;2022-11-22T07:10:45;19.17;;;9.90;;
15818;SDS011;8010;53.986;12.106;2022-11-22T07:13:10;19.53;;;9.93;;
15818;SDS011;8010;53.986;12.106;2022-11-22T07:15:36;20.60;;;11.50;;
15818;SDS011;8010;53.986;12.106;2022-11-22T07:18:01;21.07;;;10.10;;
15818;SDS011;8010;53.986;12.106;2022-11-22T07:20:27;23.13;;;11.23;;
15818;SDS011;8010;53.986;12.106;2022-11-22T07:22:52;22.03;;;10.97;;
15818;SDS011;8010;53.986;12.106;2022-11-22T07:25:18;24.57;;;11.70;;
15818;SDS011;8010;53.986;12.106;2022-11-22T07:27:43;23.23;;;11.60;;
15818;SDS011;8010;53.986;12.106;2022-11-22T07:30:09;22.63;;;10.37;;
15818;SDS011;8010;53.986;12.106;2022-11-22T07:32:35;23.53;;;11.63;;
15818;SDS011;8010;53.986;12.106;2022-11-22T07:35:01;23.07;;;12.90;;
15818;SDS011;8010;53.986;12.106;2022-11-22T07:37:26;24.73;;;11.63;;
15818;SDS011;8010;53.986;12.106;2022-11-22T07:39:54;20.20;;;11.53;;
15818;SDS011;8010;53.986;12.106;2022-11-22T07:42:19;23.10;;;11.63;;
15818;SDS011;8010;53.986;12.106;2022-11-22T07:44:45;20.07;;;11.27;;
15818;SDS011;8010;53.986;12.106;2022-11-22T07:47:10;22.67;;;11.50;;
15818;SDS011;8010;53.986;12.106;2022-11-22T07:49:36;22.27;;;10.97;;
15818;SDS011;8010;53.986;12.106;2022-11-22T07:52:03;19.63;;;9.07;;
15818;SDS011;8010;53.986;12.106;2022-11-22T07:54:28;22.80;;;10.97;;
15818;SDS011;8010;53.986;12.106;2022-11-22T07:56:54;22.63;;;11.40;;
15818;SDS011;8010;53.986;12.106;2022-11-22T07:59:19;21.50;;;11.23;;
15818;SDS011;8010;53.986;12.106;2022-11-22T08:01:45;20.73;;;10.77;;
15818;SDS011;8010;53.986;12.106;2022-11-22T08:04:10;20.60;;;10.50;;
15818;SDS011;8010;53.986;12.106;2022-11-22T08:06:36;22.17;;;10.37;;
15818;SDS011;8010;53.986;12.106;2022-11-22T08:09:02;21.37;;;10.40;;
15818;SDS011;8010;53.986;12.106;2022-11-22T08:11:27;21.00;;;11.63;;
15818;SDS011;8010;53.986;12.106;2022-11-22T08:13:53;23.23;;;11.37;;
15818;SDS011;8010;53.986;12.106;2022-11-22T08:16:18;21.70;;;11.40;;
15818;SDS011;8010;53.986;12.106;2022-11-22T08:18:47;20.47;;;10.73;;
15818;SDS011;8010;53.986;12.106;2022-11-22T08:21:14;25.87;;;11.60;;
15818;SDS011;8010;53.986;12.106;2022-11-22T08:23:41;22.53;;;10.90;;
15818;SDS011;8010;53.986;12.106;2022-11-22T08:26:07;23.97;;;11.17;;
15818;SDS011;8010;53.986;12.106;2022-11-22T08:28:36;21.63;;;10.20;;
15818;SDS011;8010;53.986;12.106;2022-11-22T08:31:06;15.20;;;8.80;;
15818;SDS011;8010;53.986;12.106;2022-11-22T08:33:34;20.87;;;10.43;;
15818;SDS011;8010;53.986;12.106;2022-11-22T08:36:00;22.90;;;10.47;;
15818;SDS011;8010;53.986;12.106;2022-11-22T08:38:26;21.10;;;10.47;;
15818;SDS011;8010;53.986;12.106;2022-11-22T08:40:51;21.83;;;9.53;;
15818;SDS011;8010;53.986;12.106;2022-11-22T08:43:17;19.07;;;10.33;;
15818;SDS011;8010;53.986;12.106;2022-11-22T08:45:44;20.63;;;11.00;;
15818;SDS011;8010;53.986;12.106;2022-11-22T08:48:09;22.03;;;10.60;;
15818;SDS011;8010;53.986;12.106;2022-11-22T08:50:35;16.60;;;9.17;;
15818;SDS011;8010;53.986;12.106;2022-11-22T08:53:00;21.30;;;10.43;;
15818;SDS011;8010;53.986;12.106;2022-11-22T08:55:26;19.23;;;8.97;;
15818;SDS011;8010;53.986;12.106;2022-11-22T08:57:51;20.40;;;9.87;;
15818;SDS011;8010;53.986;12.106;2022-11-22T09:00:17;19.50;;;9.90;;
15818;SDS011;8010;53.986;12.106;2022-11-22T09:02:43;22.20;;;10.33;;
15818;SDS011;8010;53.986;12.106;2022-11-22T09:05:08;19.40;;;10.47;;
15818;SDS011;8010;53.986;12.106;2022-11-22T09:07:34;18.87;;;10.40;;
15818;SDS011;8010;53.986;12.106;2022-11-22T09:09:59;24.90;;;11.33;;
15818;SDS011;8010;53.986;12.106;2022-11-22T09:12:25;20.37;;;10.50;;
15818;SDS011;8010;53.986;12.106;2022-11-22T09:14:50;23.60;;;10.53;;
15818;SDS011;8010;53.986;12.106;2022-11-22T09:17:16;18.90;;;9.77;;
15818;SDS011;8010;53.986;12.106;2022-11-22T09:19:41;22.80;;;11.40;;
15818;SDS011;8010;53.986;12.106;2022-11-22T09:22:08;20.83;;;9.93;;
15818;SDS011;8010;53.986;12.106;2022-11-22T09:24:33;19.50;;;10.03;;
15818;SDS011;8010;53.986;12.106;2022-11-22T09:26:59;20.87;;;11.60;;
15818;SDS011;8010;53.986;12.106;2022-11-22T09:29:24;19.03;;;10.20;;
15818;SDS011;8010;53.986;12.106;2022-11-22T09:31:50;20.17;;;10.70;;
15818;SDS011;8010;53.986;12.106;2022-11-22T09:34:16;18.80;;;9.53;;
15818;SDS011;8010;53.986;12.106;2022-11-22T09:36:41;24.43;;;11.00;;
15818;SDS011;8010;53.986;12.106;2022-11-22T09:39:07;21.17;;;10.30;;
15818;SDS011;8010;53.986;12.106;2022-11-22T09:41:44;22.83;;;10.07;;
15818;SDS011;8010;53.986;12.106;2022-11-22T09:47:25;20.60;;;9.80;;
15818;SDS011;8010;53.986;12.106;2022-11-22T09:52:50;21.80;;;11.10;;
15818;SDS011;8010;53.986;12.106;2022-11-22T09:55:26;22.53;;;10.90;;
15818;SDS011;8010;53.986;12.106;2022-11-22T10:00:57;18.73;;;10.17;;
15818;SDS011;8010;53.986;12.106;2022-11-22T10:03:41;20.07;;;10.53;;
15818;SDS011;8010;53.986;12.106;2022-11-22T10:06:21;19.17;;;10.53;;
15818;SDS011;8010;53.986;12.106;2022-11-22T10:08:54;20.60;;;10.80;;
15818;SDS011;8010;53.986;12.106;2022-11-22T10:20:14;23.70;;;10.70;;
15818;SDS011;8010;53.986;12.106;2022-11-22T10:22:42;19.37;;;10.53;;
15818;SDS011;8010;53.986;12.106;2022-11-22T10:25:15;23.97;;;11.77;;
15818;SDS011;8010;53.986;12.106;2022-11-22T10:27:41;25.20;;;11.97;;
15818;SDS011;8010;53.986;12.106;2022-11-22T10:30:17;27.90;;;11.73;;
15818;SDS011;8010;53.986;12.106;2022-11-22T10:35:42;21.07;;;10.63;;
15818;SDS011;8010;53.986;12.106;2022-11-22T10:38:32;19.30;;;10.77;;
15818;SDS011;8010;53.986;12.106;2022-11-22T10:41:25;19.33;;;10.07;;
15818;SDS011;8010;53.986;12.106;2022-11-22T10:53:15;20.37;;;10.37;;
15818;SDS011;8010;53.986;12.106;2022-11-22T10:55:59;19.27;;;9.87;;
15818;SDS011;8010;53.986;12.106;2022-11-22T11:01:55;23.60;;;10.97;;
15818;SDS011;8010;53.986;12.106;2022-11-22T11:04:34;20.97;;;11.43;;
15818;SDS011;8010;53.986;12.106;2022-11-22T11:07:02;22.63;;;11.07;;
15818;SDS011;8010;53.986;12.106;2022-11-22T11:12:08;22.33;;;11.07;;
15818;SDS011;8010;53.986;12.106;2022-11-22T11:14:40;24.57;;;11.90;;
15818;SDS011;8010;53.986;12.106;2022-11-22T11:17:12;21.30;;;10.63;;
15818;SDS011;8010;53.986;12.106;2022-11-22T11:19:42;26.77;;;11.87;;
15818;SDS011;8010;53.986;12.106;2022-11-22T11:22:15;22.73;;;11.37;;
15818;SDS011;8010;53.986;12.106;2022-11-22T11:24:46;22.20;;;11.07;;
15818;SDS011;8010;53.986;12.106;2022-11-22T11:27:11;20.87;;;11.43;;
15818;SDS011;8010;53.986;12.106;2022-11-22T11:29:47;30.43;;;12.90;;
15818;SDS011;8010;53.986;12.106;2022-11-22T11:32:17;20.03;;;10.60;;
15818;SDS011;8010;53.986;12.106;2022-11-22T11:37:21;24.23;;;12.27;;
15818;SDS011;8010;53.986;12.106;2022-11-22T11:39:49;29.57;;;13.03;;
15818;SDS011;8010;53.986;12.106;2022-11-22T11:42:31;26.80;;;12.13;;
15818;SDS011;8010;53.986;12.106;2022-11-22T11:45:19;26.20;;;12.13;;
15818;SDS011;8010;53.986;12.106;2022-11-22T11:47:52;21.70;;;10.60;;
15818;SDS011;8010;53.986;12.106;2022-11-22T11:50:19;26.67;;;11.70;;
15818;SDS011;8010;53.986;12.106;2022-11-22T11:52:50;30.37;;;13.53;;
15818;SDS011;8010;53.986;12.106;2022-11-22T11:55:31;25.73;;;12.80;;
15818;SDS011;8010;53.986;12.106;2022-11-22T11:57:59;29.80;;;12.47;;
15818;SDS011;8010;53.986;12.106;2022-11-22T12:00:34;25.90;;;11.93;;
15818;SDS011;8010;53.986;12.106;2022-11-22T12:03:04;28.50;;;13.17;;
15818;SDS011;8010;53.986;12.106;2022-11-22T12:05:32;29.57;;;12.70;;
15818;SDS011;8010;53.986;12.106;2022-11-22T12:07:59;24.33;;;12.13;;
15818;SDS011;8010;53.986;12.106;2022-11-22T12:10:33;26.00;;;12.27;;
15818;SDS011;8010;53.986;12.106;2022-11-22T12:13:22;25.57;;;12.90;;
15818;SDS011;8010;53.986;12.106;2022-11-22T12:24:04;31.00;;;13.13;;
15818;SDS011;8010;53.986;12.106;2022-11-22T12:26:36;30.03;;;13.60;;
15818;SDS011;8010;53.986;12.106;2022-11-22T12:29:02;31.33;;;13.63;;
15818;SDS011;8010;53.986;12.106;2022-11-22T12:34:07;35.17;;;14.07;;
15818;SDS011;8010;53.986;12.106;2022-11-22T12:39:28;30.73;;;14.07;;
15818;SDS011;8010;53.986;12.106;2022-11-22T12:42:06;31.93;;;13.40;;
15818;SDS011;8010;53.986;12.106;2022-11-22T12:44:38;34.87;;;13.90;;
15818;SDS011;8010;53.986;12.106;2022-11-22T12:47:10;28.80;;;14.43;;
15818;SDS011;8010;53.986;12.106;2022-11-22T12:49:47;33.67;;;13.57;;
15818;SDS011;8010;53.986;12.106;2022-11-22T13:00:21;34.57;;;14.77;;
15818;SDS011;8010;53.986;12.106;2022-11-22T13:02:58;32.07;;;14.20;;
15818;SDS011;8010;53.986;12.106;2022-11-22T13:05:33;35.57;;;15.43;;
15818;SDS011;8010;53.986;12.106;2022-11-22T13:08:17;34.13;;;14.97;;
15818;SDS011;8010;53.986;12.106;2022-11-22T13:10:52;32.77;;;13.77;;
15818;SDS011;8010;53.986;12.106;2022-11-22T13:13:43;30.73;;;14.03;;
15818;SDS011;8010;53.986;12.106;2022-11-22T13:16:12;38.70;;;14.03;;
15818;SDS011;8010;53.986;12.106;2022-11-22T13:18:39;36.47;;;14.70;;
15818;SDS011;8010;53.986;12.106;2022-11-22T13:21:18;39.23;;;15.87;;
15818;SDS011;8010;53.986;12.106;2022-11-22T13:27:21;29.63;;;14.00;;
15818;SDS011;8010;53.986;12.106;2022-11-22T13:29:53;34.90;;;13.87;;
15818;SDS011;8010;53.986;12.106;2022-11-22T13:32:21;37.03;;;13.60;;
15818;SDS011;8010;53.986;12.106;2022-11-22T13:35:17;34.07;;;14.60;;
15818;SDS011;8010;53.986;12.106;2022-11-22T13:37:54;30.50;;;12.63;;
15818;SDS011;8010;53.986;12.106;2022-11-22T13:40:23;40.13;;;15.43;;
15818;SDS011;8010;53.986;12.106;2022-11-22T13:46:00;28.83;;;12.80;;
15818;SDS011;8010;53.986;12.106;2022-11-22T13:51:06;31.23;;;12.60;;
15818;SDS011;8010;53.986;12.106;2022-11-22T13:53:36;32.70;;;13.43;;
15818;SDS011;8010;53.986;12.106;2022-11-22T14:06:51;33.53;;;13.70;;
15818;SDS011;8010;53.986;12.106;2022-11-22T14:20:56;29.47;;;11.73;;
15818;SDS011;8010;53.986;12.106;2022-11-22T14:29:15;32.73;;;13.77;;
15818;SDS011;8010;53.986;12.106;2022-11-22T14:32:16;34.47;;;13.30;;
15818;SDS011;8010;53.986;12.106;2022-11-22T14:45:34;34.93;;;13.50;;
15818;SDS011;8010;53.986;12.106;2022-11-22T14:48:19;32.60;;;13.47;;
15818;SDS011;8010;53.986;12.106;2022-11-22T14:50:50;35.27;;;13.60;;
15818;SDS011;8010;53.986;12.106;2022-11-22T14:53:36;36.97;;;13.93;;
15818;SDS011;8010;53.986;12.106;2022-11-22T14:56:19;36.67;;;14.03;;
15818;SDS011;8010;53.986;12.106;2022-11-22T15:04:18;30.37;;;12.97;;
15818;SDS011;8010;53.986;12.106;2022-11-22T15:13:13;35.03;;;13.03;;
15818;SDS011;8010;53.986;12.106;2022-11-22T15:15:46;31.10;;;13.07;;
15818;SDS011;8010;53.986;12.106;2022-11-22T15:18:16;30.37;;;13.37;;
15818;SDS011;8010;53.986;12.106;2022-11-22T15:20:49;36.40;;;13.23;;
15818;SDS011;8010;53.986;12.106;2022-11-22T15:25:42;26.43;;;12.37;;
15818;SDS011;8010;53.986;12.106;2022-11-22T15:28:16;41.67;;;15.33;;
15818;SDS011;8010;53.986;12.106;2022-11-22T15:30:44;32.87;;;14.60;;
15818;SDS011;8010;53.986;12.106;2022-11-22T15:33:32;36.07;;;14.00;;
15818;SDS011;8010;53.986;12.106;2022-11-22T15:38:23;31.50;;;14.30;;
15818;SDS011;8010;53.986;12.106;2022-11-22T15:40:48;31.77;;;12.40;;
15818;SDS011;8010;53.986;12.106;2022-11-22T15:43:21;33.27;;;12.83;;
15818;SDS011;8010;53.986;12.106;2022-11-22T15:45:48;30.37;;;12.23;;
15818;SDS011;8010;53.986;12.106;2022-11-22T15:48:30;31.20;;;13.97;;
15818;SDS011;8010;53.986;12.106;2022-11-22T15:53:33;33.47;;;13.13;;
15818;SDS011;8010;53.986;12.106;2022-11-22T15:56:01;33.73;;;13.10;;
15818;SDS011;8010;53.986;12.106;2022-11-22T15:58:33;30.27;;;13.40;;
15818;SDS011;8010;53.986;12.106;2022-11-22T16:01:03;33.80;;;13.00;;
15818;SDS011;8010;53.986;12.106;2022-11-22T16:03:38;30.40;;;13.27;;
15818;SDS011;8010;53.986;12.106;2022-11-22T16:06:09;30.70;;;12.93;;
15818;SDS011;8010;53.986;12.106;2022-11-22T16:08:51;36.67;;;13.17;;
15818;SDS011;8010;53.986;12.106;2022-11-22T16:11:20;31.60;;;12.53;;
15818;SDS011;8010;53.986;12.106;2022-11-22T16:13:51;41.63;;;14.87;;
15818;SDS011;8010;53.986;12.106;2022-11-22T16:16:18;34.77;;;13.30;;
15818;SDS011;8010;53.986;12.106;2022-11-22T16:18:49;36.23;;;12.90;;
15818;SDS011;8010;53.986;12.106;2022-11-22T16:21:20;41.97;;;15.00;;
15818;SDS011;8010;53.986;12.106;2022-11-22T16:27:04;33.70;;;13.57;;
15818;SDS011;8010;53.986;12.106;2022-11-22T16:29:38;30.03;;;12.87;;
15818;SDS011;8010;53.986;12.106;2022-11-22T16:32:10;27.43;;;11.87;;
15818;SDS011;8010;53.986;12.106;2022-11-22T16:34:37;31.67;;;12.70;;
15818;SDS011;8010;53.986;12.106;2022-11-22T16:37:23;36.27;;;13.30;;
15818;SDS011;8010;53.986;12.106;2022-11-22T16:39:50;32.00;;;12.67;;
15818;SDS011;8010;53.986;12.106;2022-11-22T16:42:15;31.27;;;12.47;;
15818;SDS011;8010;53.986;12.106;2022-11-22T16:44:41;36.87;;;13.80;;
15818;SDS011;8010;53.986;12.106;2022-11-22T16:47:09;34.10;;;13.10;;
15818;SDS011;8010;53.986;12.106;2022-11-22T16:49:39;36.83;;;14.40;;
15818;SDS011;8010;53.986;12.106;2022-11-22T16:52:07;33.63;;;13.37;;
15818;SDS011;8010;53.986;12.106;2022-11-22T16:54:35;37.70;;;14.70;;
15818;SDS011;8010;53.986;12.106;2022-11-22T16:57:00;34.63;;;13.27;;
15818;SDS011;8010;53.986;12.106;2022-11-22T16:59:26;37.20;;;13.03;;
15818;SDS011;8010;53.986;12.106;2022-11-22T17:01:52;33.90;;;13.30;;